createdAt,value
2022-10-20T00:05:21.024Z,101806.48
2022-10-20T00:08:48.746Z,101799.95
2022-10-20T00:12:15.772Z,101801.50
2022-10-20T00:15:49.870Z,101800.48
2022-10-20T00:19:16.701Z,101797.89
2022-10-20T00:22:46.539Z,101797.38
2022-10-20T00:26:15.885Z,101794.80
2022-10-20T00:29:42.840Z,101799.44
2022-10-20T00:33:10.100Z,101796.34
2022-10-20T00:36:38.638Z,101783.63
2022-10-20T00:40:06.256Z,101777.97
2022-10-20T00:43:47.702Z,101774.88
2022-10-20T00:47:18.843Z,101771.27
2022-10-20T00:50:50.515Z,101769.20
2022-10-20T00:54:21.097Z,101765.92
2022-10-20T00:57:51.380Z,101763.02
2022-10-20T01:01:20.450Z,101757.00
2022-10-20T01:04:47.476Z,101759.40
2022-10-20T01:08:13.768Z,101748.92
2022-10-20T01:11:51.312Z,101743.25
2022-10-20T01:15:42.438Z,101736.90
2022-10-20T01:23:45.177Z,101738.79
2022-10-20T01:27:40.218Z,101743.42
2022-10-20T01:31:20.125Z,101736.73
2022-10-20T01:34:53.164Z,101739.63
2022-10-20T01:38:30.293Z,101732.42
2022-10-20T01:42:02.072Z,101734.48
2022-10-20T01:45:32.570Z,101738.27
2022-10-20T01:49:00.884Z,101735.52
2022-10-20T01:52:29.026Z,101734.31
2022-10-20T01:55:59.146Z,101731.41
2022-10-20T01:59:43.719Z,101732.42
2022-10-20T02:03:34.191Z,101727.95
2022-10-20T02:07:05.986Z,101722.79
2022-10-20T02:10:42.466Z,101717.63
2022-10-20T02:14:12.530Z,101717.27
2022-10-20T02:17:43.435Z,101719.13
2022-10-20T02:21:10.323Z,101713.98
2022-10-20T02:24:39.369Z,101714.14
2022-10-20T02:28:10.348Z,101712.05
2022-10-20T02:31:36.897Z,101717.88
2022-10-20T02:35:06.779Z,101714.42
2022-10-20T02:38:33.869Z,101714.74
2022-10-20T02:42:00.341Z,101712.85
2022-10-20T02:45:26.850Z,101715.75
2022-10-20T02:48:53.359Z,101713.88
2022-10-20T02:52:20.263Z,101719.70
2022-10-20T02:55:47.143Z,101716.96
2022-10-20T02:59:17.050Z,101712.02
2022-10-20T03:02:43.671Z,101709.77
2022-10-20T03:06:15.878Z,101718.70
2022-10-20T03:09:44.374Z,101719.73
2022-10-20T03:13:11.427Z,101722.64
2022-10-20T03:16:37.786Z,101724.84
2022-10-20T03:20:05.278Z,101727.39
2022-10-20T03:23:31.617Z,101723.77
2022-10-20T03:26:58.260Z,101728.71
2022-10-20T03:30:25.251Z,101727.16
2022-10-20T03:33:51.794Z,101734.16
2022-10-20T03:37:18.416Z,101736.52
2022-10-20T03:40:45.123Z,101735.29
2022-10-20T03:44:12.874Z,101737.14
2022-10-20T03:47:39.717Z,101739.02
2022-10-20T03:51:07.699Z,101742.08
2022-10-20T03:54:36.789Z,101740.64
2022-10-20T03:58:03.643Z,101743.38
2022-10-20T04:01:34.035Z,101745.25
2022-10-20T04:05:00.589Z,101744.40
2022-10-20T04:08:27.247Z,101740.49
2022-10-20T04:11:53.889Z,101733.33
2022-10-20T04:15:20.677Z,101736.27
2022-10-20T04:18:47.651Z,101738.67
2022-10-20T04:22:14.911Z,101739.75
2022-10-20T04:25:47.797Z,101737.01
2022-10-20T04:29:15.888Z,101734.77
2022-10-20T04:32:42.942Z,101740.40
2022-10-20T04:36:13.572Z,101737.98
2022-10-20T04:39:39.974Z,101736.05
2022-10-20T04:43:06.861Z,101730.73
2022-10-20T04:46:33.869Z,101726.60
2022-10-20T04:50:00.109Z,101727.77
2022-10-20T04:53:26.631Z,101726.70
2022-10-20T04:56:53.068Z,101729.60
2022-10-20T05:00:20.222Z,101726.99
2022-10-20T05:03:47.348Z,101730.40
2022-10-20T05:07:13.938Z,101726.95
2022-10-20T05:10:41.007Z,101727.94
2022-10-20T05:14:07.905Z,101726.39
2022-10-20T05:17:35.034Z,101728.43
2022-10-20T05:21:08.928Z,101727.24
2022-10-20T05:24:36.166Z,101725.01
2022-10-20T05:28:03.084Z,101733.47
2022-10-20T05:31:29.773Z,101739.86
2022-10-20T05:34:56.511Z,101740.77
2022-10-20T05:38:23.053Z,101745.07
2022-10-20T05:41:49.811Z,101742.52
2022-10-20T05:45:16.983Z,101746.14
2022-10-20T05:48:43.597Z,101747.13
2022-10-20T05:52:10.353Z,101749.66
2022-10-20T05:55:37.410Z,101748.75
2022-10-20T05:59:03.997Z,101759.15
2022-10-20T06:02:30.573Z,101756.75
2022-10-20T06:06:01.554Z,101763.09
2022-10-20T06:09:28.328Z,101767.02
2022-10-20T06:12:55.177Z,101766.36
2022-10-20T06:16:23.627Z,101770.49
2022-10-20T06:19:50.138Z,101768.29
2022-10-20T06:23:16.962Z,101765.38
2022-10-20T06:26:44.614Z,101765.91
2022-10-20T06:30:13.984Z,101771.77
2022-10-20T06:33:40.960Z,101771.48
2022-10-20T06:37:07.576Z,101769.33
2022-10-20T06:40:36.622Z,101775.55
2022-10-20T06:44:03.719Z,101779.23
2022-10-20T06:47:32.794Z,101781.35
2022-10-20T06:51:02.070Z,101786.21
2022-10-20T06:54:28.729Z,101790.02
2022-10-20T06:57:58.560Z,101791.44
2022-10-20T07:01:27.501Z,101793.53
2022-10-20T07:04:54.373Z,101797.98
2022-10-20T07:08:21.106Z,101804.54
2022-10-20T07:11:51.949Z,101810.38
2022-10-20T07:15:19.728Z,101809.17
2022-10-20T07:18:47.909Z,101809.04
2022-10-20T07:22:15.577Z,101808.20
2022-10-20T07:25:42.308Z,101812.17
2022-10-20T07:29:09.313Z,101817.00
2022-10-20T07:32:36.059Z,101812.21
2022-10-20T07:36:03.310Z,101817.05
2022-10-20T07:39:30.704Z,101813.81
2022-10-20T07:42:57.793Z,101811.79
2022-10-20T07:46:25.725Z,101809.56
2022-10-20T07:49:53.395Z,101810.42
2022-10-20T07:53:21.162Z,101816.27
2022-10-20T07:56:48.039Z,101813.69
2022-10-20T08:00:16.310Z,101816.91
2022-10-20T08:03:43.158Z,101815.84
2022-10-20T08:07:09.837Z,101814.24
2022-10-20T08:10:36.690Z,101808.34
2022-10-20T08:14:03.947Z,101807.59
2022-10-20T08:17:33.610Z,101804.61
2022-10-20T08:21:12.631Z,101807.29
2022-10-20T08:24:44.237Z,101805.84
2022-10-20T08:28:12.169Z,101804.56
2022-10-20T08:31:39.019Z,101801.41
2022-10-20T08:35:06.305Z,101797.05
2022-10-20T08:38:33.532Z,101794.76
2022-10-20T08:42:09.553Z,101795.02
2022-10-20T08:45:38.528Z,101793.02
2022-10-20T08:49:08.818Z,101796.19
2022-10-20T08:52:36.444Z,101795.52
2022-10-20T08:56:03.662Z,101793.61
2022-10-20T08:59:39.264Z,101789.62
2022-10-20T09:03:19.261Z,101783.85
2022-10-20T09:06:49.998Z,101783.07
2022-10-20T09:10:25.958Z,101778.83
2022-10-20T09:13:53.034Z,101772.86
2022-10-20T09:17:20.332Z,101774.66
2022-10-20T09:20:52.656Z,101770.21
2022-10-20T09:24:31.378Z,101772.55
2022-10-20T09:27:58.489Z,101767.96
2022-10-20T09:31:33.507Z,101767.83
2022-10-20T09:35:19.938Z,101770.39
2022-10-20T09:38:49.133Z,101765.04
2022-10-20T09:42:20.859Z,101762.43
2022-10-20T09:45:54.907Z,101759.89
2022-10-20T09:49:30.270Z,101759.30
2022-10-20T09:53:00.252Z,101760.48
2022-10-20T09:56:30.174Z,101757.23
2022-10-20T10:00:01.381Z,101753.94
2022-10-20T10:03:45.293Z,101754.29
2022-10-20T10:07:33.366Z,101762.34
2022-10-20T10:11:15.548Z,101761.35
2022-10-20T10:14:55.429Z,101758.16
2022-10-20T10:18:25.763Z,101747.35
2022-10-20T10:21:56.818Z,101750.13
2022-10-20T10:25:27.868Z,101747.75
2022-10-20T10:29:00.910Z,101742.23
2022-10-20T10:32:30.151Z,101736.48
2022-10-20T10:35:57.526Z,101734.44
2022-10-20T10:39:25.234Z,101732.63
2022-10-20T10:43:13.581Z,101724.86
2022-10-20T10:50:32.893Z,101718.85
2022-10-20T10:54:12.369Z,101709.30
2022-10-20T10:57:53.422Z,101703.80
2022-10-20T11:01:59.226Z,101698.60
2022-10-20T11:05:56.136Z,101692.63
2022-10-20T11:09:33.286Z,101695.14
2022-10-20T11:13:26.164Z,101689.02
2022-10-20T11:17:07.214Z,101684.81
2022-10-20T11:20:40.059Z,101675.46
2022-10-20T11:24:25.435Z,101674.10
2022-10-20T11:27:52.647Z,101666.87
2022-10-20T11:31:27.928Z,101660.89
2022-10-20T11:35:04.767Z,101654.95
2022-10-20T11:38:37.727Z,101653.51
2022-10-20T11:42:14.229Z,101645.73
2022-10-20T11:45:49.322Z,101636.42
2022-10-20T11:49:19.697Z,101634.77
2022-10-20T11:53:06.274Z,101623.90
2022-10-20T11:56:57.835Z,101616.04
2022-10-20T12:05:06.403Z,101616.31
2022-10-20T12:08:54.207Z,101614.67
2022-10-20T12:12:27.195Z,101610.31
2022-10-20T12:15:54.958Z,101605.70
2022-10-20T12:19:24.003Z,101603.30
2022-10-20T12:22:52.651Z,101604.23
2022-10-20T12:27:04.903Z,101597.70
2022-10-20T12:30:46.089Z,101597.05
2022-10-20T12:34:25.735Z,101599.00
2022-10-20T12:38:01.803Z,101596.98
2022-10-20T12:41:34.096Z,101576.83
2022-10-20T12:45:07.593Z,101580.19
2022-10-20T12:48:42.419Z,101571.80
2022-10-20T12:52:18.620Z,101571.34
2022-10-20T12:55:48.426Z,101568.40
2022-10-20T12:59:39.453Z,101563.48
2022-10-20T13:03:53.096Z,101563.42
2022-10-20T13:07:58.732Z,101563.46
2022-10-20T13:11:46.364Z,101556.15
2022-10-20T13:15:19.239Z,101557.23
2022-10-20T13:18:50.913Z,101551.93
2022-10-20T13:22:38.181Z,101552.02
2022-10-20T13:26:17.231Z,101550.17
2022-10-20T13:29:44.611Z,101550.46
2022-10-20T13:37:22.578Z,101544.54
2022-10-20T13:41:02.612Z,101547.73
2022-10-20T13:44:37.964Z,101546.15
2022-10-20T13:48:16.683Z,101544.92
2022-10-20T13:51:48.927Z,101536.37
2022-10-20T13:55:22.652Z,101531.40
2022-10-20T13:59:03.096Z,101528.28
2022-10-20T14:02:32.637Z,101514.88
2022-10-20T14:06:00.580Z,101519.80
2022-10-20T14:09:28.159Z,101518.58
2022-10-20T14:12:56.978Z,101516.02
2022-10-20T14:16:29.553Z,101513.39
2022-10-20T14:20:19.359Z,101515.00
2022-10-20T14:23:51.103Z,101514.36
2022-10-20T14:27:23.013Z,101509.91
2022-10-20T14:30:51.047Z,101509.67
2022-10-20T14:34:28.444Z,101506.84
2022-10-20T14:37:59.822Z,101505.02
2022-10-20T14:41:32.476Z,101502.83
2022-10-20T14:45:04.383Z,101498.11
2022-10-20T14:48:38.586Z,101498.78
2022-10-20T14:52:11.146Z,101491.77
2022-10-20T14:55:43.025Z,101490.52
2022-10-20T14:59:19.179Z,101479.95
2022-10-20T15:02:56.385Z,101476.38
2022-10-20T15:06:23.277Z,101477.02
2022-10-20T15:09:51.991Z,101473.08
2022-10-20T15:13:31.007Z,101468.68
2022-10-20T15:16:57.947Z,101460.73
2022-10-20T15:20:42.251Z,101456.14
2022-10-20T15:24:09.033Z,101453.09
2022-10-20T15:27:43.682Z,101449.58
2022-10-20T15:31:22.003Z,101444.64
2022-10-20T15:34:48.863Z,101440.09
2022-10-20T15:38:16.234Z,101433.42
2022-10-20T15:41:43.351Z,101437.59
2022-10-20T15:45:18.810Z,101433.17
2022-10-20T15:48:46.513Z,101438.80
2022-10-20T15:52:14.785Z,101442.47
2022-10-20T15:55:43.566Z,101439.43
2022-10-20T15:59:10.719Z,101439.32
2022-10-20T16:02:37.834Z,101434.23
2022-10-20T16:06:06.424Z,101434.83
2022-10-20T16:09:33.559Z,101443.14
2022-10-20T16:13:01.075Z,101438.27
2022-10-20T16:16:28.267Z,101441.21
2022-10-20T16:19:56.115Z,101441.02
2022-10-20T16:23:23.382Z,101436.09
2022-10-20T16:26:50.623Z,101437.55
2022-10-20T16:30:17.805Z,101437.67
2022-10-20T16:33:45.348Z,101445.35
2022-10-20T16:37:12.461Z,101446.84
2022-10-20T16:40:40.401Z,101448.23
2022-10-20T16:44:11.030Z,101451.34
2022-10-20T16:47:39.679Z,101448.77
2022-10-20T16:51:10.461Z,101438.17
2022-10-20T16:58:08.226Z,101449.21
2022-10-20T17:01:39.906Z,101438.35
2022-10-20T17:05:09.444Z,101444.94
2022-10-20T17:08:37.559Z,101452.49
2022-10-20T17:12:04.660Z,101450.94
2022-10-20T17:15:32.345Z,101448.71
2022-10-20T17:19:01.230Z,101452.94
2022-10-20T17:22:28.375Z,101443.64
2022-10-20T17:26:04.043Z,101435.17
2022-10-20T17:29:31.174Z,101432.54
2022-10-20T17:32:57.797Z,101432.50
2022-10-20T17:36:27.531Z,101433.86
2022-10-20T17:39:54.882Z,101440.41
2022-10-20T17:43:22.076Z,101447.14
2022-10-20T17:46:49.268Z,101440.77
2022-10-20T17:50:18.210Z,101429.41
2022-10-20T17:53:48.681Z,101427.41
2022-10-20T17:57:15.914Z,101426.84
2022-10-20T18:00:56.121Z,101425.77
2022-10-20T18:04:24.331Z,101422.45
2022-10-20T18:07:52.821Z,101413.77
2022-10-20T18:11:22.727Z,101407.50
2022-10-20T18:14:49.801Z,101400.03
2022-10-20T18:18:17.014Z,101395.16
2022-10-20T18:21:45.804Z,101394.41
2022-10-20T18:25:15.018Z,101388.14
2022-10-20T18:28:45.845Z,101385.66
2022-10-20T18:32:16.914Z,101384.36
2022-10-20T18:35:49.743Z,101379.94
2022-10-20T18:39:18.049Z,101382.71
2022-10-20T18:42:52.161Z,101378.23
2022-10-20T18:46:23.524Z,101383.69
2022-10-20T18:49:54.643Z,101390.36
2022-10-20T18:53:25.528Z,101388.57
2022-10-20T18:56:53.696Z,101384.22
2022-10-20T19:00:21.441Z,101382.43
2022-10-20T19:03:51.793Z,101382.61
2022-10-20T19:07:19.265Z,101376.98
2022-10-20T19:10:46.773Z,101367.03
2022-10-20T19:14:15.577Z,101365.95
2022-10-20T19:17:45.204Z,101367.42
2022-10-20T19:21:13.118Z,101368.20
2022-10-20T19:24:42.038Z,101370.35
2022-10-20T19:28:13.847Z,101366.16
2022-10-20T19:31:45.317Z,101360.23
2022-10-20T19:35:13.931Z,101361.69
2022-10-20T19:38:43.600Z,101367.64
2022-10-20T19:42:18.266Z,101374.59
2022-10-20T19:45:49.893Z,101371.36
2022-10-20T19:49:19.799Z,101357.65
2022-10-20T19:52:48.257Z,101347.46
2022-10-20T19:56:19.590Z,101327.41
2022-10-20T19:59:50.362Z,101311.16
2022-10-20T20:03:24.440Z,101303.55
2022-10-20T20:06:53.196Z,101299.50
2022-10-20T20:10:22.885Z,101290.13
2022-10-20T20:13:51.426Z,101282.70
2022-10-20T20:17:20.260Z,101271.14
2022-10-20T20:20:50.253Z,101267.54
2022-10-20T20:24:18.090Z,101270.70
2022-10-20T20:27:45.602Z,101267.66
2022-10-20T20:31:14.129Z,101261.52
2022-10-20T20:34:42.074Z,101254.88
2022-10-20T20:38:09.706Z,101253.39
2022-10-20T20:41:38.397Z,101260.04
2022-10-20T20:45:08.675Z,101266.48
2022-10-20T20:48:38.806Z,101271.55
2022-10-20T20:52:07.137Z,101265.08
2022-10-20T20:55:41.966Z,101263.22
2022-10-20T20:59:09.523Z,101262.58
2022-10-20T21:02:43.549Z,101255.34
2022-10-20T21:07:01.139Z,101258.42
2022-10-20T21:10:36.662Z,101255.92
2022-10-20T21:18:25.049Z,101244.72
2022-10-20T21:22:15.456Z,101251.60
2022-10-20T21:25:51.248Z,101253.70
2022-10-20T21:29:27.318Z,101254.23
2022-10-20T21:32:57.903Z,101243.95
2022-10-20T21:36:33.276Z,101239.03
2022-10-20T21:40:01.204Z,101236.84
2022-10-20T21:43:30.173Z,101230.20
2022-10-20T21:46:58.121Z,101226.33
2022-10-20T21:50:25.804Z,101215.58
2022-10-20T21:53:56.140Z,101208.48
2022-10-20T21:57:23.892Z,101204.93
2022-10-20T22:00:54.702Z,101202.07
2022-10-20T22:04:25.503Z,101205.71
2022-10-20T22:07:54.021Z,101207.45
2022-10-20T22:11:26.344Z,101205.05
2022-10-20T22:14:54.442Z,101209.34
2022-10-20T22:18:26.890Z,101210.70
2022-10-20T22:25:26.436Z,101205.60
2022-10-20T22:28:56.447Z,101213.14
2022-10-20T22:32:24.291Z,101207.90
2022-10-20T22:35:54.090Z,101200.11
2022-10-20T22:39:22.376Z,101199.45
2022-10-20T22:42:50.966Z,101200.02
2022-10-20T22:46:20.993Z,101206.80
2022-10-20T22:49:51.613Z,101202.36
2022-10-20T22:53:20.032Z,101198.65
2022-10-20T22:56:47.879Z,101193.59
2022-10-20T23:00:18.917Z,101188.71
2022-10-20T23:03:47.920Z,101197.35
2022-10-20T23:07:22.782Z,101195.38
2022-10-20T23:11:02.843Z,101199.44
2022-10-20T23:14:34.205Z,101201.44
2022-10-20T23:18:02.311Z,101200.66
2022-10-20T23:21:31.292Z,101204.64
2022-10-20T23:25:04.523Z,101208.10
2022-10-20T23:28:39.352Z,101209.27
2022-10-20T23:32:08.425Z,101201.88
2022-10-20T23:35:38.328Z,101188.20
2022-10-20T23:39:07.464Z,101165.27
2022-10-20T23:42:34.566Z,101155.73
2022-10-20T23:46:03.827Z,101154.45
2022-10-20T23:49:31.465Z,101149.27
2022-10-20T23:52:59.211Z,101143.98
2022-10-20T23:56:26.486Z,101128.55
2022-10-20T23:59:53.553Z,101122.63
